Time;durP1;ratioP1;P1;durP2;ratioP2;P2;SDS_P1;SDS_P2;PMS_P1;PMS_P2;Temp;Humidity;BMP_temperature;BMP_pressure;BME280_temperature;BME280_humidity;BME280_pressure;Samples;Min_cycle;Max_cycle;Signal;HPM_P1;HPM_P2
2022/08/26 00:00:47;;;;;;;4.32;3.40;;;21.30;94.90;;;;;;5052287;28;20186;-62
2022/08/26 00:03:15;;;;;;;4.35;3.67;;;21.40;94.90;;;;;;5053197;28;20273;-62
2022/08/26 00:05:42;;;;;;;4.28;3.63;;;21.30;94.90;;;;;;5053452;28;20256;-62
2022/08/26 00:08:09;;;;;;;5.97;3.40;;;21.30;95.00;;;;;;5053147;28;20181;-62
2022/08/26 00:10:35;;;;;;;6.32;3.60;;;21.30;95.00;;;;;;5053632;28;20235;-62
2022/08/26 00:13:00;;;;;;;3.40;3.10;;;21.30;95.10;;;;;;5053166;28;20185;-62
2022/08/26 00:15:26;;;;;;;4.43;3.50;;;21.40;95.00;;;;;;5053158;28;20213;-62
2022/08/26 00:17:52;;;;;;;4.57;3.42;;;21.40;94.90;;;;;;5053311;28;20532;-62
2022/08/26 00:20:22;;;;;;;5.45;3.42;;;21.40;95.00;;;;;;5053282;28;20189;-62
2022/08/26 00:22:47;;;;;;;12.18;7.05;;;21.40;95.00;;;;;;5053319;28;20181;-62
2022/08/26 00:25:14;;;;;;;6.30;4.55;;;21.30;95.10;;;;;;5053008;28;20177;-63
2022/08/26 00:27:40;;;;;;;5.78;4.57;;;21.30;95.30;;;;;;5052679;28;20173;-63
2022/08/26 00:30:10;;;;;;;5.80;4.35;;;21.20;95.40;;;;;;5052902;28;20264;-63
2022/08/26 00:32:36;;;;;;;4.93;3.40;;;21.20;95.70;;;;;;5053213;28;20189;-63
2022/08/26 00:35:03;;;;;;;3.95;3.53;;;21.10;95.90;;;;;;5053040;28;20606;-63
2022/08/26 00:37:29;;;;;;;3.60;3.20;;;21.10;96.10;;;;;;5052627;28;20255;-63
2022/08/26 00:39:54;;;;;;;5.88;3.70;;;21.00;96.20;;;;;;5052837;28;20231;-63
2022/08/26 00:42:20;;;;;;;4.85;3.80;;;20.90;96.30;;;;;;5051219;28;20173;-63
2022/08/26 00:44:46;;;;;;;4.20;3.78;;;20.90;96.60;;;;;;5052644;28;20185;-63
2022/08/26 00:47:23;;;;;;;5.45;4.10;;;20.80;96.80;;;;;;5052968;28;20179;-63
2022/08/26 00:49:50;;;;;;;5.10;3.70;;;20.80;97.00;;;;;;5052766;28;20181;-64
2022/08/26 00:52:20;;;;;;;7.43;3.90;;;20.70;97.10;;;;;;5052957;28;20173;-63
2022/08/26 00:54:52;;;;;;;4.88;3.40;;;20.70;97.40;;;;;;5052711;28;20220;-64
2022/08/26 00:57:19;;;;;;;6.28;3.85;;;20.70;97.50;;;;;;5040675;28;20722;-64
2022/08/26 00:59:50;;;;;;;4.15;3.58;;;20.70;97.70;;;;;;5051324;28;20185;-64
2022/08/26 01:02:16;;;;;;;6.47;4.03;;;20.70;97.70;;;;;;5050456;28;20592;-63
2022/08/26 01:04:42;;;;;;;4.10;3.60;;;20.60;97.80;;;;;;5051466;28;20178;-64
2022/08/26 01:07:08;;;;;;;5.18;4.15;;;20.60;97.80;;;;;;5052495;28;20428;-64
2022/08/26 01:09:34;;;;;;;4.43;3.67;;;20.60;97.90;;;;;;5052073;28;20506;-64
2022/08/26 01:12:01;;;;;;;5.72;3.65;;;20.60;98.00;;;;;;5052122;28;20177;-64
2022/08/26 01:14:33;;;;;;;5.18;3.55;;;20.60;98.10;;;;;;5052600;28;20201;-64
2022/08/26 01:17:01;;;;;;;7.70;4.10;;;20.60;98.20;;;;;;5052105;28;20181;-64
2022/08/26 01:20:14;;;;;;;5.07;3.40;;;20.60;98.30;;;;;;5052149;28;20188;-64
2022/08/26 01:22:56;;;;;;;5.55;3.60;;;20.60;98.40;;;;;;5050074;28;20281;-64
2022/08/26 01:25:25;;;;;;;6.90;4.15;;;20.50;98.40;;;;;;5051040;28;20190;-64
2022/08/26 01:27:52;;;;;;;6.32;4.45;;;20.50;98.50;;;;;;5051425;28;20177;-64
2022/08/26 01:30:19;;;;;;;6.53;3.80;;;20.60;98.50;;;;;;5051797;28;20216;-64
2022/08/26 01:32:47;;;;;;;6.32;3.83;;;20.50;98.40;;;;;;5052000;28;20196;-64
2022/08/26 01:35:13;;;;;;;4.80;3.80;;;20.60;98.30;;;;;;5050712;28;20304;-64
2022/08/26 01:37:39;;;;;;;7.05;3.95;;;20.60;98.20;;;;;;5051607;28;20729;-64
2022/08/26 01:40:08;;;;;;;7.22;4.40;;;20.70;98.10;;;;;;5051936;28;20204;-64
2022/08/26 01:42:33;;;;;;;8.70;5.78;;;20.70;98.10;;;;;;5051237;28;20178;-64
2022/08/26 01:45:13;;;;;;;13.60;9.82;;;20.70;98.10;;;;;;5051457;28;20222;-64
2022/08/26 01:47:40;;;;;;;7.30;4.55;;;20.70;98.00;;;;;;5051845;28;20269;-64
2022/08/26 01:50:16;;;;;;;7.82;4.70;;;20.70;98.00;;;;;;5051491;28;20537;-64
2022/08/26 01:52:45;;;;;;;4.35;3.60;;;20.70;98.10;;;;;;5050441;28;20180;-64
2022/08/26 01:55:14;;;;;;;9.27;4.45;;;20.60;98.40;;;;;;5051520;28;21888;-64
2022/08/26 01:57:41;;;;;;;4.68;3.80;;;20.60;98.50;;;;;;5050967;28;20173;-64
2022/08/26 02:00:10;;;;;;;6.55;3.88;;;20.60;98.70;;;;;;5051411;28;20193;-64
2022/08/26 02:02:36;;;;;;;4.35;3.80;;;20.50;98.70;;;;;;5050885;28;20339;-64
2022/08/26 02:05:05;;;;;;;5.22;3.72;;;20.40;98.70;;;;;;5051307;28;20178;-64
2022/08/26 02:07:32;;;;;;;5.85;4.07;;;20.30;98.90;;;;;;5051075;28;20680;-64
2022/08/26 02:09:57;;;;;;;6.60;3.92;;;20.30;99.20;;;;;;5050710;28;20204;-63
2022/08/26 02:12:24;;;;;;;4.85;4.35;;;20.20;99.20;;;;;;5051105;28;20173;-64
2022/08/26 02:14:53;;;;;;;23.33;13.95;;;20.20;99.30;;;;;;5051234;28;20292;-64
2022/08/26 02:17:24;;;;;;;5.60;4.20;;;20.20;99.40;;;;;;5050911;28;20284;-63
2022/08/26 02:19:50;;;;;;;6.05;4.20;;;20.10;99.50;;;;;;5050990;28;20188;-63
2022/08/26 02:22:21;;;;;;;7.07;5.43;;;20.00;99.80;;;;;;5051076;28;20276;-64
2022/08/26 02:24:54;;;;;;;5.32;4.20;;;20.00;99.90;;;;;;5051008;28;20191;-64
2022/08/26 02:27:29;;;;;;;6.13;4.57;;;19.90;99.90;;;;;;5050651;28;20181;-64
2022/08/26 02:30:12;;;;;;;4.68;3.70;;;19.90;99.90;;;;;;5049311;28;20193;-64
2022/08/26 02:32:39;;;;;;;7.38;3.90;;;19.90;99.90;;;;;;5051111;28;20283;-64
2022/08/26 02:35:06;;;;;;;7.18;4.35;;;19.80;99.90;;;;;;5050789;28;20239;-63
2022/08/26 02:37:32;;;;;;;7.13;3.80;;;19.70;99.90;;;;;;5050707;28;20640;-64
2022/08/26 02:39:58;;;;;;;6.72;4.13;;;19.70;99.90;;;;;;5049172;28;20195;-64
2022/08/26 02:42:23;;;;;;;6.65;4.00;;;19.60;99.90;;;;;;5050465;28;20185;-63
2022/08/26 02:44:49;;;;;;;7.40;3.97;;;19.60;99.90;;;;;;5050545;28;20212;-63
2022/08/26 02:47:15;;;;;;;4.63;4.13;;;19.60;99.90;;;;;;5050640;28;20174;-63
2022/08/26 02:49:44;;;;;;;6.30;4.22;;;19.60;99.90;;;;;;5050649;28;20189;-63
2022/08/26 02:52:11;;;;;;;4.40;4.00;;;19.60;99.90;;;;;;5050634;28;20224;-63
2022/08/26 02:54:36;;;;;;;6.75;4.50;;;19.60;99.90;;;;;;5050551;28;20205;-64
2022/08/26 02:57:02;;;;;;;7.10;4.00;;;19.60;99.90;;;;;;5050328;28;20255;-64
2022/08/26 02:59:28;;;;;;;5.22;3.90;;;19.60;99.90;;;;;;5050511;28;20185;-63
2022/08/26 03:01:54;;;;;;;7.18;3.90;;;19.50;99.90;;;;;;5050053;28;20239;-64
2022/08/26 03:04:20;;;;;;;6.28;4.05;;;19.50;99.90;;;;;;5049102;28;20249;-64
2022/08/26 03:06:48;;;;;;;4.82;4.32;;;19.50;99.90;;;;;;5050402;28;20185;-64
2022/08/26 03:09:13;;;;;;;4.47;3.80;;;19.50;99.90;;;;;;5050498;28;20212;-64
2022/08/26 03:11:39;;;;;;;6.57;4.45;;;19.50;99.90;;;;;;5050229;28;20582;-64
2022/08/26 03:14:04;;;;;;;5.03;3.95;;;19.50;99.90;;;;;;5050282;28;20257;-63
2022/08/26 03:16:32;;;;;;;6.40;4.75;;;19.40;99.90;;;;;;5050800;28;20534;-63
2022/08/26 03:18:58;;;;;;;5.18;4.13;;;19.40;99.90;;;;;;5050042;28;20178;-63
2022/08/26 03:21:23;;;;;;;5.50;4.50;;;19.40;99.90;;;;;;5050774;28;20177;-63
2022/08/26 03:23:49;;;;;;;6.32;4.65;;;19.40;99.90;;;;;;5050443;28;20187;-63
2022/08/26 03:26:15;;;;;;;7.65;4.55;;;19.30;99.90;;;;;;5050047;28;20184;-63
2022/08/26 03:30:38;;;;;;;6.30;4.82;;;19.30;99.90;;;;;;5051891;28;20534;-63
2022/08/26 03:31:27;;;;;;;7.40;4.45;;;19.20;99.90;;;;;;5054416;28;20628;-65
2022/08/26 03:33:53;;;;;;;6.53;4.93;;;19.20;99.90;;;;;;5052853;28;20277;-63
2022/08/26 03:36:18;;;;;;;7.55;4.68;;;19.20;99.90;;;;;;5053208;28;20704;-63
2022/08/26 03:38:44;;;;;;;8.95;4.55;;;19.20;99.90;;;;;;5052784;28;20189;-63
2022/08/26 03:41:11;;;;;;;8.25;4.65;;;19.20;99.90;;;;;;5053375;28;20197;-63
2022/08/26 03:43:37;;;;;;;5.57;4.45;;;19.10;99.90;;;;;;5051952;28;20173;-63
2022/08/26 03:46:10;;;;;;;5.68;4.50;;;19.10;99.90;;;;;;5053832;28;20185;-63
2022/08/26 03:48:37;;;;;;;5.85;4.45;;;19.10;99.90;;;;;;5053762;28;20186;-63
2022/08/26 03:51:04;;;;;;;6.82;4.38;;;19.10;99.90;;;;;;5053617;28;20721;-63
2022/08/26 03:53:29;;;;;;;10.93;4.97;;;19.10;99.90;;;;;;5054015;28;20213;-63
2022/08/26 03:55:56;;;;;;;5.75;4.70;;;19.00;99.90;;;;;;5053370;28;20585;-63
2022/08/26 03:58:23;;;;;;;5.32;4.13;;;19.00;99.90;;;;;;5053229;28;20183;-63
2022/08/26 04:00:50;;;;;;;7.22;4.40;;;19.00;99.90;;;;;;5053011;28;20272;-63
2022/08/26 04:03:56;;;;;;;5.78;4.28;;;19.00;99.90;;;;;;5054830;28;20213;-63
2022/08/26 04:06:02;;;;;;;8.70;4.53;;;18.90;99.90;;;;;;5053555;28;20660;-63
2022/08/26 04:08:28;;;;;;;5.28;4.72;;;18.90;99.90;;;;;;5053446;28;20185;-65
2022/08/26 04:10:53;;;;;;;8.20;5.78;;;18.80;99.90;;;;;;5053178;28;20655;-63
2022/08/26 04:13:19;;;;;;;7.95;5.78;;;18.80;99.90;;;;;;5053004;28;20182;-65
2022/08/26 04:15:44;;;;;;;6.35;4.70;;;18.80;99.90;;;;;;5052043;28;20225;-63
2022/08/26 04:18:10;;;;;;;6.18;4.35;;;18.80;99.90;;;;;;5053404;28;20529;-62
2022/08/26 04:20:36;;;;;;;5.88;4.63;;;18.80;99.90;;;;;;5053214;28;20193;-63
2022/08/26 04:23:01;;;;;;;6.53;4.70;;;18.80;99.90;;;;;;5051699;28;20180;-60
2022/08/26 04:25:27;;;;;;;6.13;5.22;;;18.80;99.90;;;;;;5053479;28;20177;-61
2022/08/26 04:27:52;;;;;;;7.57;5.25;;;18.70;99.90;;;;;;5052461;28;20182;-59
2022/08/26 04:30:18;;;;;;;7.35;4.97;;;18.70;99.90;;;;;;5053083;28;20182;-59
2022/08/26 04:32:44;;;;;;;5.63;4.63;;;18.80;99.90;;;;;;5052403;28;20178;-59
2022/08/26 04:35:10;;;;;;;7.35;4.90;;;18.70;99.90;;;;;;5052174;28;20571;-59
2022/08/26 04:37:36;;;;;;;7.05;4.80;;;18.70;99.90;;;;;;5051452;28;20192;-58
2022/08/26 04:40:03;;;;;;;6.53;4.90;;;18.70;99.90;;;;;;5052036;28;20674;-58
2022/08/26 04:42:28;;;;;;;7.88;4.95;;;18.80;99.90;;;;;;5053834;28;20181;-59
2022/08/26 04:44:54;;;;;;;6.32;5.10;;;18.80;99.90;;;;;;5052597;28;20188;-59
2022/08/26 04:47:19;;;;;;;7.45;5.60;;;18.80;99.90;;;;;;5052668;28;20522;-60
2022/08/26 04:49:45;;;;;;;8.68;5.30;;;18.90;99.90;;;;;;5052801;28;20193;-61
2022/08/26 04:52:11;;;;;;;9.55;6.13;;;18.90;99.90;;;;;;5052813;28;20187;-59
2022/08/26 04:54:36;;;;;;;8.13;5.50;;;18.90;99.90;;;;;;5053212;28;20669;-60
2022/08/26 04:57:02;;;;;;;9.35;5.72;;;19.00;99.90;;;;;;5052605;28;20299;-60
2022/08/26 04:59:27;;;;;;;9.70;6.60;;;19.00;99.90;;;;;;5052260;28;20189;-59
2022/08/26 05:01:56;;;;;;;11.02;6.50;;;19.10;99.90;;;;;;5050709;28;20636;-60
2022/08/26 05:04:21;;;;;;;11.68;6.38;;;19.10;99.90;;;;;;5052347;28;20589;-58
2022/08/26 05:06:48;;;;;;;24.00;13.13;;;19.20;99.90;;;;;;5053172;28;20239;-59
2022/08/26 05:09:13;;;;;;;26.98;16.45;;;19.20;99.90;;;;;;5052394;28;20513;-58
2022/08/26 05:11:39;;;;;;;20.60;12.93;;;19.40;99.90;;;;;;5052955;28;20189;-58
2022/08/26 05:14:05;;;;;;;16.25;10.55;;;19.70;99.90;;;;;;5052073;28;20185;-58
2022/08/26 05:16:31;;;;;;;12.57;7.90;;;19.90;99.90;;;;;;5053013;28;20216;-58
2022/08/26 05:18:56;;;;;;;10.23;5.97;;;20.20;99.90;;;;;;5052635;28;20236;-59
2022/08/26 05:21:25;;;;;;;9.32;5.85;;;20.40;99.90;;;;;;5052214;28;20568;-59
2022/08/26 05:23:51;;;;;;;10.35;5.80;;;20.50;99.90;;;;;;5052740;28;20189;-59
2022/08/26 05:26:18;;;;;;;6.32;5.47;;;20.60;99.90;;;;;;5052795;28;20173;-59
2022/08/26 05:28:44;;;;;;;7.93;5.47;;;20.70;99.90;;;;;;5052761;28;20251;-59
2022/08/26 05:31:18;;;;;;;6.60;5.40;;;20.80;99.90;;;;;;5066879;28;20216;-59
2022/08/26 05:33:45;;;;;;;9.50;5.53;;;20.80;99.90;;;;;;5064940;28;20192;-59
2022/08/26 05:36:14;;;;;;;7.70;5.47;;;20.80;99.90;;;;;;5052828;28;20221;-59
2022/08/26 05:38:40;;;;;;;9.30;5.53;;;20.80;99.90;;;;;;5052529;28;20170;-58
2022/08/26 05:41:27;;;;;;;7.13;5.35;;;20.80;99.90;;;;;;5052527;28;20197;-59
2022/08/26 05:43:54;;;;;;;9.27;5.60;;;20.90;99.90;;;;;;5060789;28;20640;-59
2022/08/26 05:46:20;;;;;;;6.88;5.45;;;21.00;99.90;;;;;;5052345;28;20178;-60
2022/08/26 05:48:46;;;;;;;7.15;5.15;;;21.00;99.90;;;;;;5052521;28;20188;-60
2022/08/26 05:51:12;;;;;;;7.80;5.40;;;21.10;99.90;;;;;;5052211;28;20176;-60
2022/08/26 05:53:39;;;;;;;6.35;5.07;;;21.20;99.90;;;;;;5051756;28;20174;-60
2022/08/26 05:56:07;;;;;;;8.35;5.72;;;21.30;99.90;;;;;;5051905;28;20217;-60
2022/08/26 05:58:34;;;;;;;7.10;4.95;;;21.60;99.90;;;;;;5052120;28;20201;-60
2022/08/26 06:01:02;;;;;;;6.57;5.38;;;21.80;99.90;;;;;;5051978;28;20287;-60
2022/08/26 06:03:28;;;;;;;8.95;5.30;;;22.10;99.90;;;;;;5052214;28;20203;-60
2022/08/26 06:05:54;;;;;;;9.88;5.20;;;22.40;99.40;;;;;;5051933;28;20181;-60
2022/08/26 06:08:20;;;;;;;9.25;5.95;;;22.60;99.00;;;;;;5051895;28;20177;-60
2022/08/26 06:10:52;;;;;;;11.18;6.53;;;22.70;98.60;;;;;;5052003;28;20276;-60
2022/08/26 06:13:20;;;;;;;9.60;5.22;;;22.90;98.40;;;;;;5051951;28;20181;-60
2022/08/26 06:15:48;;;;;;;7.82;5.40;;;23.10;98.20;;;;;;5051425;28;20732;-60
2022/08/26 06:18:16;;;;;;;9.57;5.50;;;23.20;97.70;;;;;;5051815;28;20181;-60
2022/08/26 06:20:43;;;;;;;7.20;4.90;;;23.40;97.50;;;;;;5052113;28;20204;-60
2022/08/26 06:25:59;;;;;;;7.57;4.70;;;23.90;96.50;;;;;;5051980;28;20243;-60
2022/08/26 06:28:25;;;;;;;7.75;4.65;;;24.20;96.00;;;;;;5051936;28;20181;-60
2022/08/26 06:30:51;;;;;;;9.98;5.10;;;24.50;95.60;;;;;;5051416;28;20204;-60
2022/08/26 06:33:17;;;;;;;9.43;4.97;;;24.60;94.90;;;;;;5051231;28;20177;-60
2022/08/26 06:35:45;;;;;;;7.35;4.85;;;24.70;94.70;;;;;;5051629;28;20692;-60
2022/08/26 06:38:12;;;;;;;9.88;4.75;;;24.80;94.40;;;;;;5050790;28;20181;-60
2022/08/26 06:40:47;;;;;;;6.97;4.85;;;24.90;94.40;;;;;;5050490;28;20575;-60
2022/08/26 06:43:14;;;;;;;6.57;4.65;;;24.90;94.10;;;;;;5051556;28;20176;-59
2022/08/26 06:45:39;;;;;;;8.13;4.50;;;24.80;93.90;;;;;;5051535;28;20314;-60
2022/08/26 06:48:06;;;;;;;10.75;5.47;;;24.80;93.90;;;;;;5051092;28;20215;-58
2022/08/26 06:50:33;;;;;;;6.65;4.32;;;24.80;93.80;;;;;;5050569;28;20268;-58
2022/08/26 06:52:58;;;;;;;6.65;4.75;;;24.90;93.70;;;;;;5050842;28;20248;-59
2022/08/26 06:55:24;;;;;;;8.75;4.80;;;25.00;93.70;;;;;;5051325;28;20358;-59
2022/08/26 06:57:49;;;;;;;7.47;5.05;;;25.30;93.50;;;;;;5051237;28;20195;-59
2022/08/26 07:00:17;;;;;;;6.93;5.25;;;25.60;93.10;;;;;;5051370;28;20181;-59
2022/08/26 07:02:42;;;;;;;9.90;5.20;;;25.90;92.40;;;;;;5052745;28;20229;-60
2022/08/26 07:05:08;;;;;;;6.65;5.40;;;26.20;91.80;;;;;;5055363;28;20183;-60
2022/08/26 07:07:34;;;;;;;10.65;4.93;;;26.60;91.20;;;;;;5055407;28;20231;-60
2022/08/26 07:09:59;;;;;;;8.52;5.07;;;26.90;90.40;;;;;;5055272;28;20267;-60
2022/08/26 07:12:25;;;;;;;6.68;5.15;;;27.20;89.80;;;;;;5055284;28;20220;-60
2022/08/26 07:14:51;;;;;;;11.10;5.25;;;27.70;88.50;;;;;;5054935;28;20197;-60
2022/08/26 07:17:18;;;;;;;9.27;4.95;;;28.00;86.50;;;;;;5055360;28;20170;-60
2022/08/26 07:19:44;;;;;;;12.85;5.45;;;28.50;84.80;;;;;;5055250;28;20201;-60
2022/08/26 07:22:09;;;;;;;6.88;4.88;;;29.00;82.40;;;;;;5054311;28;20182;-60
2022/08/26 07:24:39;;;;;;;7.82;4.90;;;29.60;80.00;;;;;;5054842;28;20280;-60
2022/08/26 07:27:07;;;;;;;5.93;4.30;;;30.10;78.10;;;;;;5054652;28;20185;-60
2022/08/26 07:29:34;;;;;;;10.02;4.82;;;30.70;75.20;;;;;;5054953;28;20189;-61
2022/08/26 07:32:00;;;;;;;8.63;4.57;;;31.20;72.60;;;;;;5054794;28;20177;-61
2022/08/26 07:34:26;;;;;;;8.02;4.20;;;31.70;70.10;;;;;;5054860;28;20177;-61
2022/08/26 07:36:53;;;;;;;8.55;4.53;;;32.20;67.90;;;;;;5054405;28;20279;-61
2022/08/26 07:39:18;;;;;;;6.15;4.28;;;32.60;65.40;;;;;;5054593;28;20253;-61
2022/08/26 07:41:46;;;;;;;4.53;3.83;;;33.00;64.10;;;;;;5055170;28;20176;-61
2022/08/26 07:44:13;;;;;;;4.60;4.00;;;33.30;63.30;;;;;;5053720;28;20307;-61
2022/08/26 07:46:39;;;;;;;4.00;3.60;;;33.60;61.80;;;;;;5054631;28;20211;-61
2022/08/26 07:49:04;;;;;;;5.60;3.65;;;34.00;60.30;;;;;;5053929;28;20273;-65
2022/08/26 07:51:30;;;;;;;4.57;3.60;;;34.00;59.00;;;;;;5054728;28;20181;-61
2022/08/26 07:53:56;;;;;;;4.80;3.72;;;34.00;58.10;;;;;;5054463;28;20540;-61
2022/08/26 07:56:22;;;;;;;7.05;3.40;;;33.90;57.20;;;;;;5054666;28;20212;-61
2022/08/26 07:58:48;;;;;;;4.15;3.75;;;33.80;57.50;;;;;;5054279;28;20200;-61
2022/08/26 08:01:14;;;;;;;5.55;3.78;;;33.30;57.50;;;;;;5054291;28;20221;-61
2022/08/26 08:03:40;;;;;;;7.30;4.10;;;32.80;58.60;;;;;;5054074;28;20314;-61
2022/08/26 08:06:06;;;;;;;5.32;3.95;;;32.70;59.50;;;;;;5054485;28;20276;-61
2022/08/26 08:08:31;;;;;;;4.70;4.15;;;32.40;59.40;;;;;;5053821;28;20181;-61
2022/08/26 08:10:57;;;;;;;5.32;3.95;;;32.20;59.90;;;;;;5054251;28;20180;-61
2022/08/26 08:13:23;;;;;;;4.65;3.90;;;31.90;60.20;;;;;;5053792;28;20185;-61
2022/08/26 08:15:49;;;;;;;7.30;4.40;;;31.70;61.20;;;;;;5054040;28;20220;-61
2022/08/26 08:18:15;;;;;;;7.47;4.32;;;31.70;61.30;;;;;;5053890;28;20227;-61
2022/08/26 08:20:41;;;;;;;7.60;4.80;;;31.30;61.20;;;;;;5053806;28;20636;-61
2022/08/26 08:23:06;;;;;;;6.03;4.32;;;31.00;63.20;;;;;;5054217;28;20173;-61
2022/08/26 08:25:33;;;;;;;5.47;4.03;;;31.00;63.50;;;;;;5054022;28;20177;-61
2022/08/26 08:27:58;;;;;;;5.45;3.70;;;31.00;63.30;;;;;;5053311;28;20174;-61
2022/08/26 08:30:24;;;;;;;7.32;4.47;;;31.10;63.00;;;;;;5054037;28;20188;-61
2022/08/26 08:32:50;;;;;;;5.25;4.38;;;31.10;63.30;;;;;;5053202;28;20215;-61
2022/08/26 08:35:19;;;;;;;5.32;4.22;;;31.10;63.80;;;;;;5053974;28;20718;-60
2022/08/26 08:37:45;;;;;;;4.97;3.92;;;31.30;63.10;;;;;;5053655;28;20219;-61
2022/08/26 08:40:16;;;;;;;4.57;4.05;;;31.50;63.60;;;;;;5053733;28;20201;-61
2022/08/26 08:42:53;;;;;;;5.68;4.15;;;32.20;63.40;;;;;;5053872;28;20211;-61
2022/08/26 08:45:33;;;;;;;4.78;4.00;;;32.80;61.30;;;;;;5053831;28;20177;-59
2022/08/26 08:48:05;;;;;;;4.78;3.60;;;33.50;59.70;;;;;;5053741;28;20173;-61
2022/08/26 08:50:47;;;;;;;6.55;3.75;;;33.90;57.60;;;;;;5053451;28;20177;-60
2022/08/26 08:53:15;;;;;;;4.63;3.78;;;34.00;56.60;;;;;;5053528;28;20196;-60
2022/08/26 08:55:46;;;;;;;8.18;3.50;;;33.90;57.00;;;;;;5053103;28;20217;-58
2022/08/26 08:58:19;;;;;;;4.20;3.75;;;33.80;56.60;;;;;;5053229;28;20173;-59
2022/08/26 09:00:52;;;;;;;4.60;4.10;;;33.80;56.90;;;;;;5053417;28;20177;-60
2022/08/26 09:04:08;;;;;;;4.88;3.75;;;33.60;56.60;;;;;;5052992;28;20185;-60
2022/08/26 09:06:33;;;;;;;5.45;3.92;;;33.30;57.70;;;;;;5052842;28;20178;-60
2022/08/26 09:09:00;;;;;;;4.30;3.90;;;32.80;58.00;;;;;;5052964;28;20181;-60
2022/08/26 09:11:25;;;;;;;4.80;4.05;;;32.60;58.20;;;;;;5053137;28;20648;-59
2022/08/26 09:13:53;;;;;;;5.20;3.75;;;32.40;58.60;;;;;;5053133;28;20188;-59
2022/08/26 09:16:38;;;;;;;4.80;3.42;;;32.20;58.90;;;;;;5053178;28;20213;-59
2022/08/26 09:19:28;;;;;;;4.70;3.70;;;32.20;59.60;;;;;;5046965;28;20181;-59
2022/08/26 09:21:56;;;;;;;7.75;4.20;;;32.20;59.70;;;;;;5042699;28;20269;-59
2022/08/26 09:24:22;;;;;;;9.57;3.58;;;32.00;59.40;;;;;;5053155;28;20179;-59
2022/08/26 09:26:48;;;;;;;4.60;3.95;;;31.80;60.10;;;;;;5052316;28;20721;-59
2022/08/26 09:29:22;;;;;;;6.70;3.88;;;31.70;60.30;;;;;;5052577;28;20243;-60
2022/08/26 09:31:49;;;;;;;7.40;4.60;;;31.50;60.10;;;;;;5052992;28;20677;-59
2022/08/26 09:34:22;;;;;;;9.15;6.68;;;31.50;60.50;;;;;;5052533;28;20213;-61
2022/08/26 09:36:53;;;;;;;8.77;4.60;;;31.50;61.70;;;;;;5052324;28;20865;-59
2022/08/26 09:39:35;;;;;;;5.07;4.03;;;31.40;61.50;;;;;;5052522;28;20224;-60
2022/08/26 09:42:21;;;;;;;6.75;4.22;;;31.40;60.50;;;;;;5052614;28;20177;-59
2022/08/26 09:45:09;;;;;;;4.95;4.07;;;31.40;60.50;;;;;;5052681;28;20589;-59
2022/08/26 09:47:46;;;;;;;4.63;3.85;;;31.30;60.30;;;;;;5052505;28;20193;-59
2022/08/26 09:50:22;;;;;;;5.57;3.80;;;31.10;61.10;;;;;;5052453;28;20184;-59
2022/08/26 09:53:07;;;;;;;4.55;3.53;;;31.20;62.00;;;;;;5052476;28;20243;-59
2022/08/26 09:55:33;;;;;;;5.15;3.85;;;31.50;61.70;;;;;;5052303;28;20201;-59
2022/08/26 09:57:59;;;;;;;5.25;3.72;;;31.60;60.30;;;;;;5052457;28;20213;-59
2022/08/26 10:00:29;;;;;;;5.45;3.83;;;31.50;59.90;;;;;;5052152;28;20217;-59
2022/08/26 10:02:55;;;;;;;3.88;3.30;;;31.50;61.00;;;;;;5052143;28;20236;-59
2022/08/26 10:05:39;;;;;;;5.25;3.90;;;31.70;61.70;;;;;;5053417;28;20181;-59
2022/08/26 10:08:27;;;;;;;6.43;3.78;;;32.20;60.70;;;;;;5052234;28;20641;-59
2022/08/26 10:10:55;;;;;;;9.40;4.00;;;32.10;59.40;;;;;;5051924;28;20224;-59
2022/08/26 10:13:38;;;;;;;5.22;3.90;;;32.00;59.30;;;;;;5051952;28;20649;-59
2022/08/26 10:16:16;;;;;;;5.72;4.13;;;32.00;59.80;;;;;;5050526;28;20343;-59
2022/08/26 10:18:55;;;;;;;3.78;3.35;;;32.20;60.30;;;;;;5051620;28;20263;-59
2022/08/26 10:21:40;;;;;;;8.82;4.35;;;32.40;59.70;;;;;;5043235;28;20185;-59
2022/08/26 10:24:08;;;;;;;7.05;4.13;;;32.40;58.80;;;;;;5050982;28;20181;-59
2022/08/26 10:27:27;;;;;;;7.40;4.25;;;32.60;59.50;;;;;;5051651;28;20178;-59
2022/08/26 10:30:02;;;;;;;4.15;3.58;;;32.90;58.70;;;;;;5009873;28;20230;-59
2022/08/26 10:32:45;;;;;;;7.05;3.80;;;33.30;58.40;;;;;;5031540;28;21129;-59
2022/08/26 10:35:13;;;;;;;6.55;3.80;;;33.80;56.90;;;;;;5047432;28;20930;-60
2022/08/26 10:37:45;;;;;;;7.18;3.90;;;34.00;59.00;;;;;;5050985;28;20184;-60
2022/08/26 10:40:36;;;;;;;7.45;4.05;;;34.30;57.40;;;;;;5050802;28;20184;-59
2022/08/26 10:43:08;;;;;;;6.82;4.03;;;34.60;56.10;;;;;;5051103;28;20188;-57
2022/08/26 10:45:41;;;;;;;6.53;4.07;;;34.90;56.30;;;;;;5050458;28;20192;-57
2022/08/26 10:48:20;;;;;;;7.97;4.00;;;35.10;55.00;;;;;;5047369;28;20188;-58
2022/08/26 10:50:46;;;;;;;8.02;4.18;;;35.30;54.70;;;;;;5050886;28;20195;-58
2022/08/26 10:53:33;;;;;;;9.95;4.07;;;35.40;54.60;;;;;;5051089;28;20509;-58
2022/08/26 10:56:12;;;;;;;7.50;3.88;;;35.60;53.80;;;;;;5047738;28;20219;-59
2022/08/26 10:59:05;;;;;;;7.97;4.18;;;35.90;54.10;;;;;;5043463;28;20181;-60
2022/08/26 11:01:42;;;;;;;6.35;4.10;;;36.10;53.00;;;;;;5050276;28;20221;-60
2022/08/26 11:04:37;;;;;;;6.47;3.78;;;36.20;52.20;;;;;;5050692;28;20215;-59
2022/08/26 11:07:41;;;;;;;10.30;5.32;;;36.30;52.70;;;;;;5045746;28;20185;-59
2022/08/26 11:10:16;;;;;;;7.15;4.60;;;36.50;51.40;;;;;;5042259;28;20210;-61
2022/08/26 11:12:41;;;;;;;10.00;4.70;;;36.70;51.10;;;;;;5050599;28;20181;-61
2022/08/26 11:15:19;;;;;;;7.75;4.55;;;36.80;50.90;;;;;;5050820;28;20223;-61
2022/08/26 11:17:44;;;;;;;7.45;4.43;;;36.80;50.60;;;;;;5051050;28;20724;-63
2022/08/26 11:20:22;;;;;;;10.13;4.80;;;36.60;51.70;;;;;;5051164;28;20287;-61
2022/08/26 11:22:49;;;;;;;10.82;4.72;;;36.40;51.40;;;;;;5051225;28;20626;-61
2022/08/26 11:25:17;;;;;;;12.02;4.75;;;36.30;51.40;;;;;;5050951;28;20284;-61
2022/08/26 11:27:49;;;;;;;11.82;4.70;;;36.30;50.60;;;;;;5049588;28;20176;-61
2022/08/26 11:30:15;;;;;;;8.40;4.40;;;36.50;50.40;;;;;;5047547;28;20574;-61
2022/08/26 11:32:40;;;;;;;8.55;4.78;;;36.70;50.90;;;;;;5051173;28;20248;-61
2022/08/26 11:35:30;;;;;;;10.98;4.32;;;36.70;50.10;;;;;;5050328;28;20565;-61
2022/08/26 11:38:02;;;;;;;10.70;4.78;;;36.60;49.60;;;;;;5050868;28;20678;-61
2022/08/26 11:40:37;;;;;;;9.32;5.07;;;36.70;49.60;;;;;;5050933;28;20271;-61
2022/08/26 11:43:05;;;;;;;10.23;4.40;;;36.80;48.90;;;;;;5050178;28;20596;-62
2022/08/26 11:45:45;;;;;;;8.27;4.70;;;36.90;49.10;;;;;;5051177;28;20181;-61
2022/08/26 11:48:21;;;;;;;6.43;4.30;;;36.90;49.80;;;;;;5051068;28;20172;-61
2022/08/26 11:50:57;;;;;;;11.40;4.82;;;37.00;48.70;;;;;;5054825;28;20184;-62
2022/08/26 11:53:24;;;;;;;7.15;4.38;;;36.90;48.90;;;;;;5054844;28;20187;-62
2022/08/26 11:55:52;;;;;;;11.52;5.00;;;37.00;48.70;;;;;;5054550;28;20567;-62
2022/08/26 11:58:20;;;;;;;9.07;4.38;;;36.90;48.40;;;;;;5053492;28;20180;-61
2022/08/26 12:00:56;;;;;;;10.57;4.45;;;37.00;48.00;;;;;;5054360;28;20513;-61
2022/08/26 12:03:46;;;;;;;9.50;4.68;;;36.80;48.50;;;;;;5054628;28;20692;-61
2022/08/26 12:06:22;;;;;;;8.30;4.72;;;36.60;48.00;;;;;;5054149;28;20186;-61
2022/08/26 12:08:48;;;;;;;11.30;4.65;;;36.60;48.10;;;;;;5054561;28;20180;-61
2022/08/26 12:11:25;;;;;;;10.52;4.50;;;36.60;48.30;;;;;;5054475;28;20295;-61
2022/08/26 12:14:03;;;;;;;8.07;4.35;;;36.80;47.30;;;;;;5054256;28;20183;-61
2022/08/26 12:16:33;;;;;;;10.48;4.60;;;37.00;47.00;;;;;;5053994;28;20369;-61
2022/08/26 12:18:58;;;;;;;6.93;3.67;;;37.20;46.60;;;;;;5054161;28;20176;-61
2022/08/26 12:21:28;;;;;;;6.63;3.65;;;36.80;47.10;;;;;;5054324;28;20276;-61
2022/08/26 12:24:01;;;;;;;8.88;4.88;;;36.10;48.10;;;;;;5054358;28;20212;-62
2022/08/26 12:26:32;;;;;;;9.48;4.20;;;35.30;48.90;;;;;;5054268;28;20199;-61
2022/08/26 12:29:06;;;;;;;10.48;4.30;;;34.70;50.00;;;;;;5054135;28;20204;-61
2022/08/26 12:31:39;;;;;;;8.05;4.20;;;34.40;50.80;;;;;;5054120;28;20197;-60
2022/08/26 12:34:07;;;;;;;6.50;3.85;;;33.90;51.40;;;;;;5053932;28;20840;-60
2022/08/26 12:36:56;;;;;;;7.75;3.40;;;33.50;52.00;;;;;;5053808;28;20224;-61
2022/08/26 12:39:32;;;;;;;7.80;3.95;;;33.20;52.60;;;;;;5053976;28;20640;-60
2022/08/26 12:42:00;;;;;;;4.53;3.58;;;33.30;52.60;;;;;;5053833;28;20173;-61
2022/08/26 12:44:43;;;;;;;9.23;4.22;;;33.30;51.70;;;;;;5053908;28;20266;-61
2022/08/26 12:47:11;;;;;;;6.85;4.15;;;33.40;51.90;;;;;;5053787;28;20178;-60
2022/08/26 12:49:38;;;;;;;9.82;3.90;;;33.60;51.60;;;;;;5053838;28;20185;-60
2022/08/26 12:52:06;;;;;;;6.40;4.38;;;33.80;51.10;;;;;;5053640;28;20311;-61
2022/08/26 12:57:23;;;;;;;10.20;4.15;;;33.70;50.80;;;;;;5053972;28;20234;-61
2022/08/26 12:59:49;;;;;;;9.15;3.65;;;33.70;50.90;;;;;;5053191;28;20177;-61
2022/08/26 13:02:34;;;;;;;10.35;4.30;;;33.70;50.60;;;;;;5052574;28;20220;-61
2022/08/26 13:04:59;;;;;;;10.50;5.05;;;33.70;50.70;;;;;;5053550;28;20185;-61